Time;durP1;ratioP1;P1;durP2;ratioP2;P2;SDS_P1;SDS_P2;PMS_P1;PMS_P2;Temp;Humidity;BMP_temperature;BMP_pressure;BME280_temperature;BME280_humidity;BME280_pressure;Samples;Min_cycle;Max_cycle;Signal;HPM_P1;HPM_P2
2023/12/19 00:00:40;;;;;;;67.60;23.83;;;7.30;1.00;;;;;;5068768;28;20051;-76
2023/12/19 00:03:05;;;;;;;63.33;24.63;;;7.40;1.00;;;;;;5058486;28;20388;-72
2023/12/19 00:05:31;;;;;;;76.78;24.83;;;7.20;1.00;;;;;;5055365;28;20044;-72
2023/12/19 00:07:56;;;;;;;72.18;24.48;;;7.50;1.00;;;;;;5053769;28;20039;-69
2023/12/19 00:10:22;;;;;;;70.72;24.63;;;7.40;1.00;;;;;;5060918;28;20470;-71
2023/12/19 00:12:48;;;;;;;68.35;25.48;;;7.30;7.90;;;;;;5050657;28;20060;-73
2023/12/19 00:15:13;;;;;;;65.25;25.55;;;7.50;18.00;;;;;;5066458;28;20131;-70
2023/12/19 00:17:40;;;;;;;65.45;24.83;;;7.50;26.50;;;;;;5050641;28;20518;-70
2023/12/19 00:20:06;;;;;;;72.32;24.50;;;7.20;36.20;;;;;;5057831;28;20032;-67
2023/12/19 00:22:32;;;;;;;68.50;24.00;;;7.30;50.00;;;;;;5061899;28;20446;-71
2023/12/19 00:24:57;;;;;;;66.20;23.50;;;7.50;55.10;;;;;;5069531;28;20174;-69
2023/12/19 00:27:23;;;;;;;60.60;20.65;;;7.50;62.20;;;;;;5048236;28;20393;-69
2023/12/19 00:29:49;;;;;;;56.85;22.30;;;7.50;70.70;;;;;;5047406;28;20049;-68
2023/12/19 00:32:14;;;;;;;49.42;19.48;;;7.50;75.30;;;;;;5059098;28;20148;-70
2023/12/19 00:34:40;;;;;;;51.83;20.40;;;7.50;80.10;;;;;;5058485;28;20041;-70
2023/12/19 00:37:06;;;;;;;53.55;21.10;;;7.60;81.60;;;;;;5052450;28;20043;-68
2023/12/19 00:39:31;;;;;;;49.13;19.83;;;7.40;82.00;;;;;;5048712;28;20115;-69
2023/12/19 00:41:57;;;;;;;50.15;19.02;;;7.40;87.90;;;;;;5050957;28;20044;-70
2023/12/19 00:44:22;;;;;;;40.17;17.27;;;7.30;91.40;;;;;;5064145;28;20080;-70
2023/12/19 00:46:48;;;;;;;45.53;18.60;;;7.50;94.80;;;;;;5036876;28;20036;-69
2023/12/19 00:49:14;;;;;;;45.78;18.05;;;7.40;99.10;;;;;;5058169;28;20040;-66
2023/12/19 00:51:39;;;;;;;42.35;18.73;;;7.50;99.90;;;;;;5047112;28;20040;-72
2023/12/19 00:54:05;;;;;;;43.47;18.20;;;7.40;99.90;;;;;;5057697;28;20527;-73
2023/12/19 00:56:32;;;;;;;48.60;18.38;;;7.40;99.90;;;;;;5058591;28;20446;-71
2023/12/19 00:58:58;;;;;;;51.45;19.90;;;7.40;99.90;;;;;;5038639;28;20056;-71
2023/12/19 01:01:24;;;;;;;51.45;19.08;;;7.50;99.90;;;;;;5056183;28;20513;-69
2023/12/19 01:03:50;;;;;;;51.17;19.13;;;7.40;99.90;;;;;;5052625;28;20169;-66
2023/12/19 01:06:16;;;;;;;55.45;20.17;;;7.60;99.90;;;;;;5050257;28;20779;-71
2023/12/19 01:08:42;;;;;;;49.50;19.17;;;7.40;99.90;;;;;;5058714;28;20028;-68
2023/12/19 01:11:09;;;;;;;55.17;19.95;;;7.40;99.90;;;;;;5055463;28;20501;-69
2023/12/19 01:13:38;;;;;;;52.25;19.67;;;7.40;99.90;;;;;;5054765;28;20041;-67
2023/12/19 01:16:04;;;;;;;50.03;19.33;;;7.40;99.90;;;;;;5053559;28;20384;-69
2023/12/19 01:18:30;;;;;;;46.88;18.95;;;7.50;99.90;;;;;;5033581;28;20044;-69
2023/12/19 01:20:56;;;;;;;45.67;17.75;;;7.30;1.00;;;;;;5056380;28;20040;-69
2023/12/19 01:23:23;;;;;;;45.95;18.08;;;7.30;99.90;;;;;;5054769;28;20053;-72
2023/12/19 01:25:48;;;;;;;46.40;18.08;;;7.50;99.90;;;;;;5048952;28;20121;-70
2023/12/19 01:28:14;;;;;;;45.88;18.02;;;7.40;99.90;;;;;;5056331;28;20757;-73
2023/12/19 01:30:41;;;;;;;42.17;16.42;;;7.60;99.90;;;;;;5054352;28;20040;-69
2023/12/19 01:33:09;;;;;;;43.25;16.50;;;7.70;99.90;;;;;;5038238;28;20033;-70
2023/12/19 01:35:36;;;;;;;44.60;17.48;;;7.60;99.90;;;;;;5057531;28;20040;-70
2023/12/19 01:38:02;;;;;;;45.30;18.17;;;7.70;99.90;;;;;;5038171;28;20045;-68
2023/12/19 01:40:31;;;;;;;45.47;16.98;;;7.70;99.90;;;;;;5033057;28;20045;-70
2023/12/19 01:43:00;;;;;;;39.63;15.07;;;7.70;99.90;;;;;;5050951;28;20049;-68
2023/12/19 01:45:27;;;;;;;34.03;13.83;;;7.60;99.90;;;;;;5056846;28;20062;-69
2023/12/19 01:47:53;;;;;;;38.30;14.13;;;7.60;99.90;;;;;;5057469;28;20051;-69
2023/12/19 01:50:20;;;;;;;37.00;14.05;;;7.50;99.90;;;;;;5057520;28;20090;-69
2023/12/19 01:52:53;;;;;;;36.70;14.77;;;7.60;99.90;;;;;;5060705;28;20037;-70
2023/12/19 01:55:20;;;;;;;34.33;14.35;;;7.50;99.90;;;;;;5055905;28;20126;-69
2023/12/19 01:57:46;;;;;;;41.30;15.13;;;7.60;99.90;;;;;;5053735;28;20067;-71
2023/12/19 02:00:13;;;;;;;37.33;15.05;;;7.50;99.90;;;;;;5051925;28;20131;-71
2023/12/19 02:02:42;;;;;;;27.70;13.13;;;7.50;99.90;;;;;;5056265;28;20044;-71
2023/12/19 02:05:08;;;;;;;36.83;15.18;;;7.40;99.90;;;;;;5052797;28;20115;-72
2023/12/19 02:07:33;;;;;;;31.67;13.48;;;7.60;99.90;;;;;;5047963;28;20493;-68
2023/12/19 02:10:00;;;;;;;28.60;13.05;;;7.50;99.90;;;;;;5049573;28;20045;-69
2023/12/19 02:12:26;;;;;;;29.48;12.88;;;7.30;99.90;;;;;;5065514;28;20047;-70
2023/12/19 02:14:52;;;;;;;31.90;13.50;;;7.50;99.90;;;;;;5047511;28;20034;-67
2023/12/19 02:17:21;;;;;;;26.58;12.55;;;7.50;99.90;;;;;;5062734;28;20045;-71
2023/12/19 02:19:51;;;;;;;27.45;12.02;;;7.20;99.90;;;;;;5040484;28;20101;-72
2023/12/19 02:22:17;;;;;;;26.38;12.38;;;7.30;99.90;;;;;;5060717;28;20429;-72
2023/12/19 02:24:43;;;;;;;30.90;13.02;;;7.40;99.90;;;;;;5062706;28;20044;-72
2023/12/19 02:27:09;;;;;;;31.45;13.82;;;7.30;99.90;;;;;;5053374;28;20070;-70
2023/12/19 02:29:35;;;;;;;31.17;13.55;;;7.10;99.90;;;;;;5056808;28;20397;-73
2023/12/19 02:32:01;;;;;;;30.85;12.15;;;7.30;99.90;;;;;;5061738;28;20047;-74
2023/12/19 02:34:27;;;;;;;25.10;11.98;;;7.30;99.90;;;;;;5054532;28;20028;-72
2023/12/19 02:36:53;;;;;;;28.20;12.35;;;7.10;99.90;;;;;;5059574;28;20048;-70
2023/12/19 02:39:18;;;;;;;28.33;12.52;;;7.30;99.90;;;;;;5058427;28;20059;-72
2023/12/19 02:41:44;;;;;;;25.00;12.02;;;7.30;99.90;;;;;;5058979;28;20473;-68
2023/12/19 02:44:10;;;;;;;26.35;10.98;;;7.30;99.90;;;;;;5064343;28;20119;-71
2023/12/19 02:46:36;;;;;;;23.88;11.35;;;7.20;99.90;;;;;;5040109;28;20453;-72
2023/12/19 02:49:02;;;;;;;29.88;12.50;;;7.00;99.90;;;;;;5058287;28;20440;-70
2023/12/19 02:51:29;;;;;;;27.77;11.57;;;6.90;99.90;;;;;;5042690;28;20040;-72
2023/12/19 02:53:56;;;;;;;24.13;11.63;;;7.20;99.90;;;;;;5071062;28;20040;-73
2023/12/19 02:56:21;;;;;;;26.63;11.50;;;7.10;99.90;;;;;;5060762;28;20586;-74
2023/12/19 02:58:47;;;;;;;23.15;11.35;;;6.90;99.90;;;;;;5065692;28;20045;-72
2023/12/19 03:01:12;;;;;;;23.90;11.07;;;7.20;99.90;;;;;;5053781;28;20040;-72
2023/12/19 03:03:42;;;;;;;25.98;12.10;;;7.00;99.90;;;;;;5064571;28;20075;-71
2023/12/19 03:06:08;;;;;;;26.75;11.07;;;7.00;99.90;;;;;;5059082;28;20044;-73
2023/12/19 03:08:37;;;;;;;25.13;11.52;;;6.90;99.90;;;;;;5063932;28;20066;-74
2023/12/19 03:11:03;;;;;;;25.17;11.02;;;7.00;99.90;;;;;;5068494;28;20389;-70
2023/12/19 03:13:28;;;;;;;27.25;11.95;;;6.90;99.90;;;;;;5058284;28;20033;-72
2023/12/19 03:15:54;;;;;;;29.73;12.32;;;7.00;99.90;;;;;;5066105;28;20697;-74
2023/12/19 03:18:24;;;;;;;25.48;11.57;;;6.80;99.90;;;;;;5060226;28;20041;-71
2023/12/19 03:20:54;;;;;;;21.85;10.93;;;6.80;99.90;;;;;;5045737;28;20065;-72
2023/12/19 03:23:23;;;;;;;23.73;10.48;;;6.90;99.90;;;;;;5058403;28;20870;-71
2023/12/19 03:25:49;;;;;;;24.70;10.85;;;6.90;99.90;;;;;;5062982;28;20033;-72
2023/12/19 03:28:15;;;;;;;24.88;11.20;;;6.80;99.90;;;;;;5052361;28;20456;-71
2023/12/19 03:30:41;;;;;;;20.75;10.27;;;6.80;99.90;;;;;;5075719;28;20052;-72
2023/12/19 03:33:07;;;;;;;22.08;10.35;;;7.10;99.90;;;;;;5074632;28;20044;-71
2023/12/19 03:35:33;;;;;;;24.40;10.65;;;7.00;99.90;;;;;;5064218;28;20051;-73
2023/12/19 03:37:59;;;;;;;28.80;12.05;;;6.90;99.90;;;;;;5074352;28;20096;-72
2023/12/19 03:40:25;;;;;;;30.60;12.18;;;7.10;99.90;;;;;;5071424;28;20380;-70
2023/12/19 03:42:50;;;;;;;24.45;10.43;;;6.80;99.90;;;;;;5064974;28;20044;-71
2023/12/19 03:45:16;;;;;;;25.35;11.23;;;7.00;99.90;;;;;;5062152;28;20032;-69
2023/12/19 03:47:42;;;;;;;27.95;11.80;;;7.10;99.90;;;;;;5081527;28;20098;-74
2023/12/19 03:50:08;;;;;;;26.38;11.10;;;6.80;99.90;;;;;;5070936;28;20128;-68
2023/12/19 03:52:35;;;;;;;24.40;10.40;;;7.10;99.90;;;;;;5067095;28;20052;-75
2023/12/19 03:55:00;;;;;;;26.95;11.60;;;7.00;99.90;;;;;;5066563;28;20181;-73
2023/12/19 03:57:27;;;;;;;30.42;11.13;;;6.80;99.90;;;;;;5069440;28;20128;-69
2023/12/19 03:59:53;;;;;;;21.55;9.85;;;7.20;99.90;;;;;;5076755;28;20109;-71
2023/12/19 04:02:19;;;;;;;22.17;10.57;;;6.80;99.90;;;;;;5079651;28;20047;-72
2023/12/19 04:04:44;;;;;;;29.17;11.35;;;6.80;99.90;;;;;;5052375;28;20790;-69
2023/12/19 04:07:10;;;;;;;28.73;11.32;;;7.00;99.90;;;;;;5072923;28;20043;-73
2023/12/19 04:09:36;;;;;;;24.27;9.95;;;7.20;99.90;;;;;;5072915;28;20051;-70
2023/12/19 04:12:02;;;;;;;22.67;10.20;;;7.10;99.90;;;;;;5065665;28;20061;-73
2023/12/19 04:14:31;;;;;;;26.60;11.25;;;6.80;99.90;;;;;;5044808;28;20032;-71
2023/12/19 04:16:57;;;;;;;27.25;10.63;;;7.00;99.90;;;;;;5049866;28;20063;-71
2023/12/19 04:19:23;;;;;;;28.35;11.32;;;6.80;99.90;;;;;;5052770;28;20036;-72
2023/12/19 04:21:49;;;;;;;26.63;11.13;;;7.10;99.90;;;;;;5072644;28;20043;-73
2023/12/19 04:24:15;;;;;;;23.98;11.02;;;7.10;99.90;;;;;;5070612;28;20043;-77
2023/12/19 04:26:46;;;;;;;34.40;12.68;;;7.10;99.90;;;;;;5063342;28;21994;-71
2023/12/19 04:29:13;;;;;;;26.50;10.52;;;7.20;99.90;;;;;;5044776;28;20054;-72
2023/12/19 04:31:39;;;;;;;27.13;11.20;;;7.20;99.90;;;;;;5050102;28;20048;-71
2023/12/19 04:34:05;;;;;;;28.65;11.73;;;7.20;99.90;;;;;;5069866;28;20067;-72
2023/12/19 04:36:31;;;;;;;27.35;11.13;;;6.70;99.90;;;;;;5064777;28;20541;-69
2023/12/19 04:38:57;;;;;;;27.80;11.55;;;7.10;99.90;;;;;;5048327;28;20033;-72
2023/12/19 04:41:23;;;;;;;21.42;9.63;;;6.80;99.90;;;;;;5079726;28;20052;-73
2023/12/19 04:43:49;;;;;;;24.35;10.57;;;6.70;99.90;;;;;;5086850;28;20032;-72
2023/12/19 04:46:14;;;;;;;23.95;9.55;;;6.70;99.90;;;;;;5062439;28;20110;-71
2023/12/19 04:48:45;;;;;;;24.67;9.98;;;6.90;99.90;;;;;;5060874;28;20055;-69
2023/12/19 04:51:18;;;;;;;;;;;7.20;99.90;;;;;;5054550;28;20113;-72
2023/12/19 04:53:45;;;;;;;23.50;9.00;;;7.20;99.90;;;;;;5040846;28;20018;-70
2023/12/19 04:56:11;;;;;;;22.10;8.52;;;6.70;99.90;;;;;;5074851;28;20068;-68
2023/12/19 04:58:37;;;;;;;19.77;8.75;;;7.00;99.90;;;;;;5071945;28;20040;-69
2023/12/19 05:01:03;;;;;;;21.15;8.45;;;7.20;99.90;;;;;;5046059;28;20056;-67
2023/12/19 05:03:29;;;;;;;23.13;9.05;;;6.60;99.90;;;;;;5050016;28;20055;-68
2023/12/19 05:05:54;;;;;;;21.25;8.90;;;7.10;99.90;;;;;;5053166;28;20040;-67
2023/12/19 05:08:20;;;;;;;19.67;8.95;;;6.70;99.90;;;;;;5069962;28;20067;-68
2023/12/19 05:10:46;;;;;;;23.27;8.73;;;6.60;99.90;;;;;;5060028;28;20043;-67
2023/12/19 05:13:11;;;;;;;20.85;8.45;;;6.70;99.90;;;;;;5052711;28;20032;-67
2023/12/19 05:15:37;;;;;;;17.17;8.40;;;7.20;99.90;;;;;;5053009;28;20329;-67
2023/12/19 05:18:03;;;;;;;19.13;8.57;;;6.70;99.90;;;;;;5061615;28;20138;-66
2023/12/19 05:20:29;;;;;;;17.38;7.63;;;6.60;99.90;;;;;;5055196;28;20044;-64
2023/12/19 05:22:54;;;;;;;19.13;8.07;;;7.10;99.90;;;;;;5071636;28;20484;-66
2023/12/19 05:25:20;;;;;;;19.35;8.57;;;7.20;99.90;;;;;;5081219;28;20033;-66
2023/12/19 05:27:46;;;;;;;20.02;7.50;;;6.70;99.90;;;;;;5059659;28;20040;-67
2023/12/19 05:30:12;;;;;;;24.67;8.15;;;6.90;99.90;;;;;;5062845;28;20075;-67
2023/12/19 05:32:39;;;;;;;19.55;7.63;;;7.20;99.90;;;;;;5052000;28;20040;-67
2023/12/19 05:35:05;;;;;;;19.70;7.80;;;7.20;99.90;;;;;;5062633;28;20047;-68
2023/12/19 05:37:31;;;;;;;23.15;8.25;;;7.10;99.90;;;;;;5065012;28;20134;-68
2023/12/19 05:39:57;;;;;;;20.75;7.75;;;7.00;99.90;;;;;;5070409;28;20498;-66
2023/12/19 05:42:24;;;;;;;15.82;6.78;;;6.70;99.90;;;;;;5059127;28;20044;-66
2023/12/19 05:44:49;;;;;;;20.88;7.43;;;7.20;99.90;;;;;;5060133;28;20040;-66
2023/12/19 05:47:15;;;;;;;19.65;7.28;;;7.30;99.90;;;;;;5065744;28;20043;-66
2023/12/19 05:49:41;;;;;;;20.13;7.07;;;7.10;99.90;;;;;;5063555;28;20464;-68
2023/12/19 05:52:07;;;;;;;21.80;7.53;;;7.10;99.90;;;;;;5068096;28;20060;-66
2023/12/19 05:54:33;;;;;;;18.73;7.22;;;6.80;99.90;;;;;;5076913;28;20054;-67
2023/12/19 05:56:58;;;;;;;17.88;7.53;;;7.30;99.90;;;;;;5071178;28;20042;-68
2023/12/19 05:59:24;;;;;;;16.70;7.18;;;7.30;99.90;;;;;;5056996;28;20119;-66
2023/12/19 06:01:50;;;;;;;19.25;7.57;;;7.30;99.90;;;;;;5068624;28;20044;-68
2023/12/19 06:04:15;;;;;;;19.73;7.53;;;7.30;99.90;;;;;;5068112;28;20056;-67
2023/12/19 06:06:44;;;;;;;21.08;7.65;;;7.30;99.90;;;;;;5062158;28;20444;-68
2023/12/19 06:09:11;;;;;;;17.73;7.53;;;7.10;99.90;;;;;;5052600;28;20373;-68
2023/12/19 06:11:37;;;;;;;18.15;7.43;;;6.80;99.90;;;;;;5054821;28;20564;-71
2023/12/19 06:14:05;;;;;;;16.48;6.90;;;7.10;99.90;;;;;;5043290;28;20032;-67
2023/12/19 06:16:31;;;;;;;17.25;7.03;;;7.00;99.90;;;;;;5065099;28;20032;-69
2023/12/19 06:18:57;;;;;;;17.13;6.38;;;6.80;99.90;;;;;;5081803;28;20043;-67
2023/12/19 06:21:22;;;;;;;15.43;6.15;;;7.40;99.90;;;;;;5055970;28;20519;-67
2023/12/19 06:23:48;;;;;;;16.70;6.68;;;7.00;99.90;;;;;;5085024;28;20040;-68
2023/12/19 06:26:15;;;;;;;14.57;6.88;;;7.40;99.90;;;;;;5060786;28;20118;-69
2023/12/19 06:28:40;;;;;;;16.80;6.25;;;7.20;99.90;;;;;;5048106;28;20119;-71
2023/12/19 06:31:06;;;;;;;19.45;7.03;;;6.80;99.90;;;;;;5057042;28;20186;-67
2023/12/19 06:33:32;;;;;;;16.13;7.38;;;6.90;99.90;;;;;;5052061;28;20550;-69
2023/12/19 06:35:58;;;;;;;18.27;7.30;;;7.40;99.90;;;;;;5056135;28;20334;-69
2023/12/19 06:38:23;;;;;;;21.75;7.72;;;7.40;99.90;;;;;;5060392;28;20456;-69
2023/12/19 06:40:49;;;;;;;19.85;7.70;;;6.80;99.90;;;;;;5066870;28;20044;-72
2023/12/19 06:43:14;;;;;;;19.20;7.18;;;6.90;99.90;;;;;;5057552;28;20318;-69
2023/12/19 06:45:40;;;;;;;18.92;7.15;;;6.90;99.90;;;;;;5065439;28;20050;-69
2023/12/19 06:48:06;;;;;;;16.95;7.30;;;6.90;99.90;;;;;;5045048;28;20123;-69
2023/12/19 06:50:31;;;;;;;17.63;7.05;;;7.10;99.90;;;;;;5043385;28;20119;-69
2023/12/19 06:52:57;;;;;;;18.20;7.00;;;7.40;99.90;;;;;;5041981;28;20032;-69
2023/12/19 06:55:24;;;;;;;17.92;7.50;;;7.20;99.90;;;;;;5067044;28;20043;-70
2023/12/19 06:57:50;;;;;;;17.95;7.32;;;6.90;99.90;;;;;;5048606;28;20116;-71
2023/12/19 07:00:17;;;;;;;16.40;7.32;;;7.40;99.90;;;;;;5078788;28;20032;-70
2023/12/19 07:02:42;;;;;;;17.90;7.25;;;6.90;99.90;;;;;;5054076;28;20134;-71
2023/12/19 07:05:09;;;;;;;21.40;8.00;;;6.90;99.90;;;;;;5063199;28;20126;-68
2023/12/19 07:07:36;;;;;;;19.15;7.15;;;7.40;99.90;;;;;;5038602;28;20037;-68
2023/12/19 07:10:03;;;;;;;18.42;7.85;;;7.30;99.90;;;;;;5069799;28;20126;-69
2023/12/19 07:12:29;;;;;;;16.77;7.40;;;7.20;99.90;;;;;;5057315;28;20830;-69
2023/12/19 07:14:54;;;;;;;18.02;7.53;;;7.40;99.90;;;;;;5087327;28;20047;-69
2023/12/19 07:17:20;;;;;;;19.08;7.75;;;7.10;99.90;;;;;;5050570;28;20059;-68
2023/12/19 07:19:47;;;;;;;20.52;7.35;;;7.50;99.90;;;;;;5060721;28;20046;-69
2023/12/19 07:22:13;;;;;;;21.23;7.95;;;7.10;99.90;;;;;;5043730;28;20043;-68
2023/12/19 07:24:39;;;;;;;15.00;7.25;;;7.10;99.90;;;;;;5065267;28;20509;-70
2023/12/19 07:27:05;;;;;;;19.38;7.50;;;7.50;99.90;;;;;;5065310;28;20125;-70
2023/12/19 07:29:30;;;;;;;20.02;7.50;;;6.90;99.90;;;;;;5054763;28;20160;-70
2023/12/19 07:31:58;;;;;;;19.40;6.95;;;7.20;99.90;;;;;;5058987;28;20377;-70
2023/12/19 07:34:23;;;;;;;18.15;6.65;;;7.40;99.90;;;;;;5054160;28;20040;-69
2023/12/19 07:36:50;;;;;;;20.30;7.82;;;7.50;99.90;;;;;;5074413;28;20818;-71
2023/12/19 07:39:16;;;;;;;24.10;8.43;;;7.50;99.90;;;;;;5065430;28;20067;-69
2023/12/19 07:41:42;;;;;;;23.92;8.05;;;7.50;99.90;;;;;;5055814;28;20516;-69
2023/12/19 07:44:10;;;;;;;19.45;7.70;;;7.50;99.90;;;;;;5046907;28;20083;-69
2023/12/19 07:46:40;;;;;;;17.52;7.57;;;7.60;99.90;;;;;;5058560;28;20048;-71
2023/12/19 07:49:06;;;;;;;18.88;7.53;;;7.00;99.90;;;;;;5047195;28;20480;-71
2023/12/19 07:51:32;;;;;;;15.40;7.45;;;7.00;99.90;;;;;;5044102;28;20036;-70
2023/12/19 07:53:57;;;;;;;17.38;7.90;;;7.50;99.90;;;;;;5059822;28;20036;-70
2023/12/19 07:56:23;;;;;;;20.90;8.05;;;7.60;99.90;;;;;;5081353;28;20086;-70
2023/12/19 07:58:49;;;;;;;21.27;8.35;;;7.60;99.90;;;;;;5056013;28;20031;-69
2023/12/19 08:01:14;;;;;;;20.52;8.38;;;7.10;99.90;;;;;;5081917;28;20042;-69
2023/12/19 08:03:41;;;;;;;23.80;8.55;;;7.10;99.90;;;;;;5065649;28;20089;-70
2023/12/19 08:06:07;;;;;;;20.10;8.10;;;7.10;99.90;;;;;;5037674;28;20086;-69
2023/12/19 08:08:33;;;;;;;20.13;8.32;;;7.70;99.90;;;;;;5068282;28;20032;-70
2023/12/19 08:10:58;;;;;;;23.00;8.85;;;7.30;99.90;;;;;;5064157;28;20032;-69
2023/12/19 08:13:24;;;;;;;20.75;8.75;;;7.50;99.90;;;;;;5059001;28;20035;-70
2023/12/19 08:15:50;;;;;;;18.55;7.68;;;7.10;99.90;;;;;;5064067;28;20063;-70
2023/12/19 08:18:16;;;;;;;23.67;8.38;;;7.20;99.90;;;;;;5069229;28;20032;-70
2023/12/19 08:20:42;;;;;;;22.35;8.95;;;7.40;99.90;;;;;;5055792;28;20561;-70
2023/12/19 08:23:08;;;;;;;24.20;7.85;;;7.20;99.90;;;;;;5060588;28;20024;-70
2023/12/19 08:25:34;;;;;;;20.75;7.80;;;7.80;99.90;;;;;;5056247;28;20075;-66
2023/12/19 08:28:01;;;;;;;22.48;8.38;;;7.80;99.90;;;;;;5056941;28;20071;-70
2023/12/19 08:30:27;;;;;;;22.08;7.90;;;7.80;99.90;;;;;;5064890;28;20072;-68
2023/12/19 08:32:56;;;;;;;25.77;7.93;;;7.60;99.90;;;;;;5046602;28;20056;-69
2023/12/19 08:35:22;;;;;;;16.83;7.30;;;7.30;99.90;;;;;;5045544;28;20063;-71
2023/12/19 08:37:48;;;;;;;26.08;8.38;;;7.40;99.90;;;;;;5052274;28;20147;-69
2023/12/19 08:40:14;;;;;;;20.45;7.38;;;7.40;99.90;;;;;;5055921;28;20104;-70
2023/12/19 08:42:43;;;;;;;23.73;7.25;;;7.90;99.90;;;;;;5055557;28;20381;-73
2023/12/19 08:45:19;;;;;;;19.70;7.78;;;7.80;99.90;;;;;;5061185;28;20032;-70
2023/12/19 08:47:46;;;;;;;24.30;7.53;;;7.70;99.90;;;;;;5057941;28;20036;-70
2023/12/19 08:50:12;;;;;;;23.40;7.43;;;7.70;99.90;;;;;;5062127;28;20036;-70
2023/12/19 08:52:40;;;;;;;12.77;5.68;;;7.50;99.90;;;;;;5053572;28;20032;-70
2023/12/19 08:55:07;;;;;;;14.73;6.22;;;7.40;99.90;;;;;;5066524;28;20503;-73
2023/12/19 08:57:45;;;;;;;15.52;5.88;;;8.00;99.90;;;;;;5069432;28;20047;-71
2023/12/19 09:00:15;;;;;;;14.50;5.60;;;7.60;99.90;;;;;;5062103;28;20537;-70
2023/12/19 09:02:42;;;;;;;17.13;6.40;;;8.00;99.90;;;;;;5053780;28;20044;-71
2023/12/19 09:05:09;;;;;;;14.70;5.47;;;7.60;99.90;;;;;;5057402;28;20029;-71
2023/12/19 09:07:35;;;;;;;16.52;5.45;;;7.60;99.90;;;;;;5068642;28;20483;-73
2023/12/19 09:10:01;;;;;;;16.25;6.30;;;8.10;99.90;;;;;;5074499;28;20043;-69
2023/12/19 09:12:27;;;;;;;15.27;6.15;;;7.80;99.90;;;;;;5061500;28;20086;-71
2023/12/19 09:14:52;;;;;;;12.18;5.72;;;8.20;99.90;;;;;;5059155;28;20037;-72
2023/12/19 09:17:18;;;;;;;14.98;6.05;;;8.20;99.90;;;;;;5083573;28;20036;-72
2023/12/19 09:19:44;;;;;;;14.38;6.22;;;7.70;99.90;;;;;;5057937;28;20093;-71
2023/12/19 09:22:10;;;;;;;13.70;6.10;;;8.00;99.90;;;;;;5049966;28;20051;-72
2023/12/19 09:24:35;;;;;;;16.02;5.78;;;8.00;99.90;;;;;;5046063;28;20040;-74
2023/12/19 09:27:02;;;;;;;16.48;5.93;;;8.20;99.90;;;;;;5051501;28;20139;-73
2023/12/19 09:29:28;;;;;;;14.32;5.88;;;7.90;99.90;;;;;;5045669;28;20048;-72
2023/12/19 09:31:54;;;;;;;15.93;5.95;;;8.20;99.90;;;;;;5067540;28;20051;-71
2023/12/19 09:34:20;;;;;;;18.90;6.75;;;7.90;99.90;;;;;;5067341;28;20085;-71
2023/12/19 09:36:45;;;;;;;15.32;5.70;;;8.40;99.90;;;;;;5054559;28;20078;-71
2023/12/19 09:39:14;;;;;;;14.60;5.93;;;7.90;99.90;;;;;;5053901;28;20051;-73
2023/12/19 09:41:45;;;;;;;16.35;6.55;;;8.00;99.90;;;;;;5037815;28;20470;-71
2023/12/19 09:44:11;;;;;;;13.35;5.45;;;8.00;99.90;;;;;;5056541;28;20048;-71
2023/12/19 09:46:37;;;;;;;14.68;6.30;;;8.20;99.90;;;;;;5052118;28;20051;-72
2023/12/19 09:49:03;;;;;;;17.10;6.15;;;8.30;99.90;;;;;;5064257;28;20040;-72
2023/12/19 09:51:30;;;;;;;13.13;5.50;;;8.00;99.90;;;;;;5063369;28;20032;-72
2023/12/19 09:53:57;;;;;;;11.75;5.18;;;8.50;99.90;;;;;;5057556;28;20041;-71
2023/12/19 09:56:23;;;;;;;14.63;6.00;;;8.50;99.90;;;;;;5076134;28;20041;-71
2023/12/19 09:58:51;;;;;;;14.75;6.28;;;8.30;99.90;;;;;;5069390;28;20471;-70
2023/12/19 10:01:19;;;;;;;13.07;5.45;;;8.40;99.90;;;;;;5047945;28;20033;-71
2023/12/19 10:03:45;;;;;;;13.85;5.47;;;8.10;99.90;;;;;;5058454;28;20032;-71
2023/12/19 10:06:11;;;;;;;16.30;5.68;;;8.20;99.90;;;;;;5043372;28;20154;-70
2023/12/19 10:08:44;;;;;;;13.68;5.40;;;8.50;99.90;;;;;;5056605;28;20179;-71
2023/12/19 10:11:18;;;;;;;12.38;5.72;;;8.60;99.90;;;;;;5061010;28;20129;-71
2023/12/19 10:13:48;;;;;;;14.10;5.50;;;8.60;99.90;;;;;;5077594;28;20122;-71
2023/12/19 10:16:17;;;;;;;15.30;6.07;;;8.70;99.90;;;;;;5061255;28;20055;-74
2023/12/19 10:18:52;;;;;;;15.23;5.90;;;8.10;99.90;;;;;;5085484;28;20070;-70
2023/12/19 10:21:20;;;;;;;14.27;6.05;;;8.60;99.90;;;;;;5069417;28;20058;-70
2023/12/19 10:23:46;;;;;;;13.82;5.97;;;8.60;99.90;;;;;;5061715;28;20036;-71
2023/12/19 10:26:12;;;;;;;13.70;6.03;;;8.60;99.90;;;;;;5071866;28;20043;-73
2023/12/19 10:28:38;;;;;;;12.93;5.72;;;8.30;99.90;;;;;;5061733;28;20060;-71
2023/12/19 10:31:14;;;;;;;16.17;5.75;;;8.30;99.90;;;;;;5044954;28;20087;-72
2023/12/19 10:33:48;;;;;;;15.05;5.85;;;8.60;99.90;;;;;;5061628;28;20066;-69
2023/12/19 10:36:30;;;;;;;15.10;6.15;;;8.20;99.90;;;;;;5060841;28;20090;-72
2023/12/19 10:39:00;;;;;;;13.18;5.78;;;8.40;99.90;;;;;;5057299;28;20048;-73
2023/12/19 10:41:27;;;;;;;12.70;5.72;;;8.60;99.90;;;;;;5056551;28;20032;-68
2023/12/19 10:43:56;;;;;;;12.85;5.65;;;8.20;99.90;;;;;;5056562;28;20415;-73
2023/12/19 10:46:25;;;;;;;12.95;5.43;;;8.20;99.90;;;;;;5057349;28;20391;-69
2023/12/19 10:48:58;;;;;;;12.98;6.13;;;8.20;99.90;;;;;;5046635;28;20032;-71
2023/12/19 10:51:33;;;;;;;12.43;5.53;;;8.30;99.90;;;;;;5065439;28;20358;-71
2023/12/19 10:54:08;;;;;;;13.88;5.88;;;8.80;99.90;;;;;;5066950;28;20487;-72
2023/12/19 10:56:39;;;;;;;15.35;6.43;;;8.70;99.90;;;;;;5073222;28;20040;-69
2023/12/19 10:59:07;;;;;;;14.52;6.22;;;8.80;99.90;;;;;;5058985;28;20039;-69
2023/12/19 11:01:40;;;;;;;15.38;6.30;;;8.60;99.90;;;;;;5058572;28;20368;-69
2023/12/19 11:04:21;;;;;;;14.52;6.53;;;8.30;99.90;;;;;;5070261;28;20131;-70
2023/12/19 11:06:53;;;;;;;16.00;6.32;;;8.30;99.90;;;;;;5068846;28;20119;-70
2023/12/19 11:09:28;;;;;;;14.55;6.22;;;8.30;99.90;;;;;;5096024;28;20239;-71
2023/12/19 11:11:54;;;;;;;18.52;7.05;;;8.70;99.90;;;;;;5061828;28;20043;-69
2023/12/19 11:14:24;;;;;;;15.93;7.10;;;8.30;99.90;;;;;;5051559;28;20043;-69
2023/12/19 11:17:24;;;;;;;14.30;7.03;;;8.20;99.90;;;;;;5084993;28;20504;-71
2023/12/19 11:20:14;;;;;;;18.05;8.05;;;8.30;99.90;;;;;;5071204;28;20118;-69
2023/12/19 11:22:59;;;;;;;18.50;8.05;;;8.30;99.90;;;;;;5063791;28;20048;-70
2023/12/19 11:25:33;;;;;;;17.45;7.65;;;8.40;99.90;;;;;;5059446;28;20072;-70
2023/12/19 11:28:02;;;;;;;18.17;7.88;;;8.40;99.90;;;;;;5067099;28;20068;-70
2023/12/19 11:30:40;;;;;;;21.92;8.73;;;8.30;99.90;;;;;;5050229;28;20135;-71
2023/12/19 11:33:07;;;;;;;22.75;8.48;;;8.50;99.90;;;;;;5057018;28;20047;-70
2023/12/19 11:35:34;;;;;;;21.65;9.25;;;8.60;99.90;;;;;;5067496;28;20052;-70
2023/12/19 11:38:19;;;;;;;21.60;8.90;;;8.40;99.90;;;;;;5058296;28;20353;-69
2023/12/19 11:40:45;;;;;;;19.70;8.15;;;8.20;99.90;;;;;;5059025;28;20036;-69
2023/12/19 11:43:29;;;;;;;21.73;8.98;;;8.70;99.90;;;;;;5084569;28;20484;-70
2023/12/19 11:46:16;;;;;;;22.88;9.00;;;8.60;99.90;;;;;;5068682;28;20054;-71
2023/12/19 11:48:49;;;;;;;30.85;10.27;;;8.30;99.90;;;;;;5071000;28;20040;-69
2023/12/19 11:51:53;;;;;;;27.30;9.90;;;8.60;99.90;;;;;;5066441;28;20805;-71
2023/12/19 11:54:19;;;;;;;22.63;9.23;;;8.20;99.90;;;;;;5056984;28;20048;-69
2023/12/19 11:56:56;;;;;;;27.33;10.00;;;8.70;99.90;;;;;;5068108;28;20036;-68
2023/12/19 11:59:22;;;;;;;21.83;9.60;;;8.70;99.90;;;;;;5081840;28;20059;-69
2023/12/19 12:01:47;;;;;;;22.88;9.80;;;8.70;99.90;;;;;;5065945;28;20086;-69
2023/12/19 12:04:13;;;;;;;27.30;10.63;;;8.70;99.90;;;;;;5085604;28;20095;-68
2023/12/19 12:06:41;;;;;;;29.67;10.07;;;8.60;99.90;;;;;;5059113;28;20089;-68
2023/12/19 12:09:07;;;;;;;26.13;11.52;;;8.20;99.90;;;;;;5089029;28;20032;-67
2023/12/19 12:11:51;;;;;;;28.27;10.45;;;8.30;99.90;;;;;;5071059;28;20502;-68
2023/12/19 12:14:16;;;;;;;26.65;10.60;;;8.20;99.90;;;;;;5059650;28;20059;-68
2023/12/19 12:16:42;;;;;;;25.75;10.35;;;8.70;99.90;;;;;;5044846;28;20040;-70
2023/12/19 12:19:16;;;;;;;25.67;9.90;;;8.70;99.90;;;;;;5065333;28;20172;-69
2023/12/19 12:21:46;;;;;;;24.48;9.50;;;8.20;99.90;;;;;;5066463;28;20044;-70
2023/12/19 12:24:26;;;;;;;26.85;10.02;;;8.30;99.90;;;;;;5067274;28;20492;-69
2023/12/19 12:27:06;;;;;;;22.13;9.07;;;8.30;99.90;;;;;;5041722;28;20056;-70
2023/12/19 12:29:36;;;;;;;23.35;9.52;;;8.70;99.90;;;;;;5071907;28;20318;-70
2023/12/19 12:32:03;;;;;;;20.42;8.90;;;8.70;99.90;;;;;;5068472;28;20131;-70
2023/12/19 12:34:32;;;;;;;22.30;9.02;;;8.30;99.90;;;;;;5053981;28;20452;-69
2023/12/19 12:36:58;;;;;;;29.55;9.25;;;8.70;99.90;;;;;;5066241;28;20178;-71
2023/12/19 12:39:24;;;;;;;23.38;8.63;;;8.50;99.90;;;;;;5038415;28;20147;-69
2023/12/19 12:41:49;;;;;;;23.13;9.07;;;8.70;99.90;;;;;;5068039;28;20135;-70
2023/12/19 12:44:15;;;;;;;22.83;9.20;;;8.70;99.90;;;;;;5075057;28;20456;-70